Terminal Aerodrome Forecast
Issued by NWS

Home | Current Version | Previous Version | Text Only | Print | Product List | Glossary Off
Versions: 1 2 3 4 5 6 7 8 9 10 11 12 13 14 15 16 17 18 19 20

000
FTUS43 KABR 192340
TAFMBG
TAF
KMBG 192340Z 2000/2024 01013KT 2SM -SN OVC035
     FM200100 02012KT 1SM -SN BLSN OVC030
     FM200500 01010KT 3/4SM -SN BLSN OVC020
     FM201200 34010KT P6SM OVC020
     FM202300 28008KT P6SM SCT150=

USA.gov is the U.S. government's official web portal to all federal, state and local government web resources and services.